createdAt,value
2019-04-26T00:02:37.512Z,2.10
2019-04-26T00:05:07.849Z,3.17
2019-04-26T00:07:38.789Z,1.57
2019-04-26T00:10:11.722Z,2.10
2019-04-26T00:12:43.183Z,1.90
2019-04-26T00:15:30.945Z,3.53
2019-04-26T00:18:02.335Z,2.03
2019-04-26T00:20:31.791Z,3.07
2019-04-26T00:23:01.338Z,2.97
2019-04-26T00:25:30.928Z,3.27
2019-04-26T00:28:00.471Z,2.17
2019-04-26T00:30:29.995Z,3.10
2019-04-26T00:32:59.641Z,2.50
2019-04-26T00:35:29.165Z,2.57
2019-04-26T00:37:58.795Z,3.10
2019-04-26T00:40:28.383Z,2.37
2019-04-26T00:42:59.772Z,7.63
2019-04-26T00:45:32.518Z,6.10
2019-04-26T00:48:03.219Z,2.77
2019-04-26T00:50:33.759Z,2.57
2019-04-26T00:53:04.257Z,3.10
2019-04-26T00:55:35.560Z,4.07
2019-04-26T00:58:06.536Z,3.20
2019-04-26T01:00:36.667Z,2.53
2019-04-26T01:03:06.276Z,2.60
2019-04-26T01:05:37.268Z,3.63
2019-04-26T01:08:06.906Z,3.93
2019-04-26T01:10:36.423Z,4.00
2019-04-26T01:13:06.040Z,2.50
2019-04-26T01:15:35.564Z,3.63
2019-04-26T01:18:05.222Z,4.77
2019-04-26T01:20:35.984Z,5.50
2019-04-26T01:23:08.781Z,6.27
2019-04-26T01:26:03.043Z,3.40
2019-04-26T01:28:53.671Z,3.53
2019-04-26T01:31:24.067Z,2.83
2019-04-26T01:33:53.838Z,2.77
2019-04-26T01:36:26.488Z,3.17
2019-04-26T01:38:59.320Z,4.73
2019-04-26T01:41:36.191Z,2.20
2019-04-26T01:44:07.799Z,5.07
2019-04-26T01:46:43.688Z,9.40
2019-04-26T01:49:15.678Z,2.77
2019-04-26T01:52:10.763Z,3.70
2019-04-26T01:54:43.451Z,3.00
2019-04-26T01:57:14.620Z,4.37
2019-04-26T01:59:48.871Z,4.13
2019-04-26T02:02:27.676Z,3.03
2019-04-26T02:05:02.181Z,2.37
2019-04-26T02:07:40.961Z,2.17
2019-04-26T02:10:13.707Z,1.90
2019-04-26T02:12:46.146Z,2.73
2019-04-26T02:15:17.396Z,3.37
2019-04-26T02:17:48.740Z,3.20
2019-04-26T02:20:56.438Z,3.27
2019-04-26T02:23:30.405Z,2.80
2019-04-26T02:26:01.588Z,3.00
2019-04-26T02:28:31.112Z,3.90
2019-04-26T02:31:00.652Z,3.70
2019-04-26T02:33:31.769Z,4.93
2019-04-26T02:36:01.366Z,3.30
2019-04-26T02:38:32.873Z,6.40
2019-04-26T02:41:02.284Z,3.27
2019-04-26T02:43:33.863Z,2.93
2019-04-26T02:46:06.935Z,3.30
2019-04-26T02:48:53.274Z,3.60
2019-04-26T02:52:04.476Z,2.60
2019-04-26T02:54:51.688Z,3.27
2019-04-26T02:57:39.298Z,2.63
2019-04-26T03:00:11.852Z,2.90
2019-04-26T03:02:43.254Z,3.90
2019-04-26T03:05:13.401Z,3.27
2019-04-26T03:07:51.457Z,3.03
2019-04-26T03:10:24.079Z,3.13
2019-04-26T03:12:55.713Z,4.70
2019-04-26T03:15:38.956Z,5.10
2019-04-26T03:18:32.838Z,3.60
2019-04-26T03:21:30.777Z,4.17
2019-04-26T03:24:22.680Z,3.43
2019-04-26T03:26:58.183Z,3.40
2019-04-26T03:29:50.218Z,3.73
2019-04-26T03:32:54.245Z,3.70
2019-04-26T03:35:28.724Z,3.13
2019-04-26T03:38:11.389Z,9.07
2019-04-26T03:40:57.281Z,3.37
2019-04-26T03:43:46.890Z,5.90
2019-04-26T03:46:25.621Z,4.43
2019-04-26T03:49:00.951Z,4.20
2019-04-26T03:52:08.721Z,4.53
2019-04-26T03:54:41.048Z,3.60
2019-04-26T03:57:20.913Z,5.90
2019-04-26T04:00:07.064Z,4.63
2019-04-26T04:02:47.278Z,3.80
2019-04-26T04:05:21.697Z,4.07
2019-04-26T04:07:54.429Z,3.80
2019-04-26T04:10:43.549Z,3.90
2019-04-26T04:13:40.852Z,3.73
2019-04-26T04:16:22.078Z,3.83
2019-04-26T04:18:54.933Z,5.33
2019-04-26T04:21:47.075Z,3.60
2019-04-26T04:24:20.857Z,4.90
2019-04-26T04:26:53.697Z,4.50
2019-04-26T04:29:56.571Z,4.07
2019-04-26T04:32:45.824Z,3.83
2019-04-26T04:35:17.355Z,5.70
2019-04-26T04:38:09.661Z,4.90
2019-04-26T04:40:50.000Z,5.07
2019-04-26T04:43:29.741Z,4.10
2019-04-26T04:46:28.391Z,4.23
2019-04-26T04:49:45.017Z,4.43
2019-04-26T04:52:27.168Z,4.97
2019-04-26T04:55:14.388Z,3.50
2019-04-26T04:57:58.420Z,4.17
2019-04-26T05:00:45.117Z,4.40
2019-04-26T05:03:34.553Z,5.77
2019-04-26T05:06:21.108Z,4.27
2019-04-26T05:09:14.764Z,3.93
2019-04-26T05:11:59.772Z,4.60
2019-04-26T05:14:35.310Z,5.83
2019-04-26T05:17:22.928Z,5.33
2019-04-26T05:20:08.046Z,5.20
2019-04-26T05:22:51.101Z,4.70
2019-04-26T05:26:00.263Z,5.23
2019-04-26T05:28:37.612Z,4.87
2019-04-26T05:31:34.499Z,5.30
2019-04-26T05:34:20.673Z,5.43
2019-04-26T05:36:58.768Z,4.03
2019-04-26T05:39:34.568Z,4.60
2019-04-26T05:42:17.748Z,5.77
2019-04-26T05:45:29.497Z,4.73
2019-04-26T05:48:28.756Z,4.90
2019-04-26T05:51:23.341Z,5.70
2019-04-26T05:54:16.707Z,4.73
2019-04-26T05:57:05.782Z,5.00
2019-04-26T05:59:44.087Z,4.50
2019-04-26T06:02:41.759Z,5.17
2019-04-26T06:05:24.743Z,5.70
2019-04-26T06:08:16.916Z,4.87
2019-04-26T06:11:04.408Z,4.50
2019-04-26T06:13:53.899Z,6.47
2019-04-26T06:16:54.847Z,6.87
2019-04-26T06:19:44.028Z,4.50
2019-04-26T06:22:25.531Z,10.43
2019-04-26T06:25:00.459Z,7.03
2019-04-26T06:27:43.799Z,5.53
2019-04-26T06:30:17.367Z,8.43
2019-04-26T06:33:02.855Z,9.17
2019-04-26T06:35:28.164Z,6.53
2019-04-26T06:38:05.455Z,4.10
2019-04-26T06:40:47.660Z,7.67
2019-04-26T06:43:22.020Z,6.77
2019-04-26T06:46:05.284Z,5.00
2019-04-26T06:48:51.525Z,7.03
2019-04-26T06:51:51.600Z,9.80
2019-04-26T06:54:35.701Z,9.43
2019-04-26T06:57:24.539Z,7.17
2019-04-26T07:00:23.311Z,6.20
2019-04-26T07:03:23.035Z,7.03
2019-04-26T07:05:59.006Z,7.73
2019-04-26T07:08:56.697Z,9.10
2019-04-26T07:11:25.995Z,10.63
2019-04-26T07:14:18.625Z,9.30
2019-04-26T07:16:58.204Z,12.00
2019-04-26T07:19:52.361Z,8.10
2019-04-26T07:22:51.072Z,11.73
2019-04-26T07:26:01.920Z,10.50
2019-04-26T07:28:56.558Z,7.70
2019-04-26T07:31:34.960Z,8.47
2019-04-26T07:34:15.068Z,7.20
2019-04-26T07:37:11.316Z,5.77
2019-04-26T07:40:07.692Z,6.93
2019-04-26T07:42:51.052Z,7.67
2019-04-26T07:45:41.675Z,7.60
2019-04-26T07:48:34.188Z,7.20
2019-04-26T07:51:06.878Z,6.47
2019-04-26T07:54:05.044Z,6.97
2019-04-26T07:56:37.920Z,6.00
2019-04-26T07:59:23.020Z,6.83
2019-04-26T08:02:09.135Z,6.10
2019-04-26T08:04:41.817Z,6.80
2019-04-26T08:07:20.406Z,6.27
2019-04-26T08:09:59.687Z,8.13
2019-04-26T08:12:30.396Z,13.60
2019-04-26T08:15:07.684Z,12.97
2019-04-26T08:17:53.683Z,9.10
2019-04-26T08:20:33.556Z,6.90
2019-04-26T08:23:09.059Z,7.10
2019-04-26T08:25:40.437Z,6.83
2019-04-26T08:28:14.179Z,6.13
2019-04-26T08:30:46.716Z,6.53
2019-04-26T08:33:19.916Z,6.30
2019-04-26T08:35:53.388Z,7.30
2019-04-26T08:38:23.900Z,6.77
2019-04-26T08:40:53.565Z,8.20
2019-04-26T08:43:41.697Z,9.23
2019-04-26T08:46:28.399Z,8.50
2019-04-26T08:49:01.834Z,8.60
2019-04-26T08:51:34.641Z,9.27
2019-04-26T08:54:06.472Z,8.80
2019-04-26T08:56:41.827Z,11.47
2019-04-26T08:59:20.028Z,10.23
2019-04-26T09:01:53.236Z,10.17
2019-04-26T09:04:41.331Z,8.87
2019-04-26T09:07:15.700Z,9.57
2019-04-26T09:09:57.145Z,9.73
2019-04-26T09:12:23.566Z,10.17
2019-04-26T09:14:55.110Z,9.97
2019-04-26T09:17:27.891Z,9.53
2019-04-26T09:19:58.103Z,9.03
2019-04-26T09:22:45.708Z,13.20
2019-04-26T09:25:30.306Z,8.13
2019-04-26T09:28:04.826Z,15.80
2019-04-26T09:30:38.565Z,9.93
2019-04-26T09:33:11.961Z,8.80
2019-04-26T09:35:41.741Z,10.20
2019-04-26T09:38:11.267Z,9.93
2019-04-26T09:40:40.805Z,8.47
2019-04-26T09:43:16.639Z,9.23
2019-04-26T09:45:50.547Z,9.70
2019-04-26T09:48:36.912Z,9.03
2019-04-26T09:51:08.422Z,8.40
2019-04-26T09:53:39.466Z,8.67
2019-04-26T09:56:09.444Z,9.37
2019-04-26T09:58:39.092Z,8.83
2019-04-26T10:01:08.792Z,8.17
2019-04-26T10:03:38.551Z,10.23
2019-04-26T10:06:08.384Z,8.87
2019-04-26T10:08:38.136Z,10.33
2019-04-26T10:11:10.862Z,10.70
2019-04-26T10:13:42.244Z,11.30
2019-04-26T10:16:13.585Z,12.20
2019-04-26T10:18:44.764Z,12.00
2019-04-26T10:21:14.478Z,11.30
2019-04-26T10:23:44.180Z,11.47
2019-04-26T10:26:13.962Z,10.37
2019-04-26T10:28:46.827Z,11.23
2019-04-26T10:31:17.248Z,11.13
2019-04-26T10:33:46.477Z,11.67
2019-04-26T10:36:16.126Z,20.57
2019-04-26T10:38:45.808Z,10.33
2019-04-26T10:41:15.353Z,9.73
2019-04-26T10:43:44.876Z,9.40
2019-04-26T10:46:14.414Z,9.57
2019-04-26T10:48:45.457Z,9.20
2019-04-26T10:51:17.178Z,11.30
2019-04-26T10:53:50.419Z,12.50
2019-04-26T10:56:36.716Z,9.67
2019-04-26T10:59:09.854Z,10.57
2019-04-26T11:01:39.521Z,10.10
2019-04-26T11:04:09.323Z,10.47
2019-04-26T11:06:38.958Z,10.30
2019-04-26T11:09:08.929Z,10.63
2019-04-26T11:11:38.772Z,9.77
2019-04-26T11:14:08.306Z,10.10
2019-04-26T11:16:41.149Z,9.90
2019-04-26T11:19:09.566Z,9.20
2019-04-26T11:21:39.084Z,9.43
2019-04-26T11:24:08.901Z,9.90
2019-04-26T11:26:38.427Z,10.33
2019-04-26T11:29:07.963Z,9.20
2019-04-26T11:31:37.794Z,10.40
2019-04-26T11:34:07.424Z,10.80
2019-04-26T11:36:37.509Z,10.73
2019-04-26T11:39:11.004Z,13.43
2019-04-26T11:41:40.772Z,11.93
2019-04-26T11:44:10.379Z,11.73
2019-04-26T11:46:44.879Z,11.40
2019-04-26T11:49:11.204Z,12.47
2019-04-26T11:51:40.737Z,11.20
2019-04-26T11:54:10.296Z,13.20
2019-04-26T11:56:39.830Z,11.77
2019-04-26T11:59:09.578Z,12.47
2019-04-26T12:01:40.536Z,12.03
2019-04-26T12:04:28.845Z,11.37
2019-04-26T12:07:00.352Z,13.30
2019-04-26T12:09:40.905Z,12.80
2019-04-26T12:12:13.195Z,13.00
2019-04-26T12:14:42.093Z,13.30
2019-04-26T12:17:11.712Z,14.33
2019-04-26T12:19:41.267Z,13.87
2019-04-26T12:22:10.816Z,13.40
2019-04-26T12:24:40.375Z,13.33
2019-04-26T12:27:10.489Z,14.43
2019-04-26T12:29:40.399Z,12.73
2019-04-26T12:32:10.075Z,13.03
2019-04-26T12:34:39.665Z,14.23
2019-04-26T12:37:13.057Z,14.13
2019-04-26T12:39:40.692Z,13.50
2019-04-26T12:42:12.374Z,12.83
2019-04-26T12:45:00.264Z,12.07
2019-04-26T12:47:34.532Z,12.97
2019-04-26T12:50:06.697Z,11.33
2019-04-26T12:52:37.543Z,12.80
2019-04-26T12:55:07.736Z,11.70
2019-04-26T12:57:40.909Z,13.20
2019-04-26T13:00:11.004Z,11.40
2019-04-26T13:02:40.587Z,10.57
2019-04-26T13:05:10.333Z,11.23
2019-04-26T13:07:42.867Z,11.97
2019-04-26T13:10:13.347Z,10.50
2019-04-26T13:12:47.159Z,10.17
2019-04-26T13:15:52.903Z,8.27
2019-04-26T13:18:22.380Z,9.60
2019-04-26T13:20:51.916Z,9.90
2019-04-26T13:23:21.453Z,8.27
2019-04-26T13:25:50.997Z,8.27
2019-04-26T13:28:21.860Z,9.33
2019-04-26T13:30:51.550Z,8.30
2019-04-26T13:33:23.165Z,7.10
2019-04-26T13:36:02.722Z,7.70
2019-04-26T13:38:23.556Z,7.77
2019-04-26T13:40:53.764Z,7.97
2019-04-26T13:43:26.994Z,7.10
2019-04-26T13:46:13.801Z,7.33
2019-04-26T13:48:47.760Z,8.00
2019-04-26T13:51:19.008Z,7.17
2019-04-26T13:53:48.604Z,6.70
2019-04-26T13:56:18.325Z,6.60
2019-04-26T13:58:47.863Z,6.00
2019-04-26T14:01:18.671Z,6.50
2019-04-26T14:03:48.559Z,5.80
2019-04-26T14:06:18.100Z,5.00
2019-04-26T14:08:47.559Z,6.30
2019-04-26T14:11:20.520Z,5.70
2019-04-26T14:13:48.488Z,5.50
2019-04-26T14:16:21.231Z,5.90
2019-04-26T14:18:49.216Z,7.87
2019-04-26T14:21:18.765Z,4.37
2019-04-26T14:23:51.104Z,5.93
2019-04-26T14:26:35.240Z,5.00
2019-04-26T14:29:06.012Z,4.80
2019-04-26T14:31:35.645Z,4.87
2019-04-26T14:34:06.744Z,4.20
2019-04-26T14:36:36.888Z,4.70
2019-04-26T14:39:10.687Z,5.80
2019-04-26T14:41:40.507Z,4.60
2019-04-26T14:44:15.594Z,5.40
2019-04-26T14:46:48.514Z,5.00
2019-04-26T14:49:13.225Z,5.27
2019-04-26T14:51:42.746Z,5.40
2019-04-26T14:54:12.535Z,4.43
2019-04-26T14:56:52.164Z,3.70
2019-04-26T14:59:13.707Z,4.40
2019-04-26T15:01:52.290Z,4.40
2019-04-26T15:04:33.059Z,3.50
2019-04-26T15:07:05.453Z,3.67
2019-04-26T15:09:36.516Z,3.63
2019-04-26T15:12:07.792Z,4.57
2019-04-26T15:14:37.438Z,5.67
2019-04-26T15:17:07.368Z,5.83
2019-04-26T15:19:40.268Z,5.40
2019-04-26T15:22:10.504Z,6.37
2019-04-26T15:24:39.984Z,6.30
2019-04-26T15:27:09.945Z,6.53
2019-04-26T15:29:39.560Z,6.27
2019-04-26T15:32:09.303Z,7.33
2019-04-26T15:34:38.840Z,6.93
2019-04-26T15:37:08.635Z,7.67
2019-04-26T15:39:44.484Z,7.87
2019-04-26T15:42:30.848Z,6.70
2019-04-26T15:45:03.323Z,6.97
2019-04-26T15:47:37.468Z,7.40
2019-04-26T15:50:09.886Z,6.30
2019-04-26T15:52:42.366Z,6.70
2019-04-26T15:55:13.314Z,6.60
2019-04-26T15:57:43.356Z,8.27
2019-04-26T16:00:13.336Z,6.20
2019-04-26T16:02:43.044Z,6.80
2019-04-26T16:05:12.685Z,6.23
2019-04-26T16:07:43.015Z,6.63
2019-04-26T16:10:12.943Z,7.17
2019-04-26T16:12:42.556Z,7.77
2019-04-26T16:15:14.689Z,8.47
2019-04-26T16:17:43.716Z,7.60
2019-04-26T16:20:13.794Z,7.47
2019-04-26T16:22:43.556Z,8.87
2019-04-26T16:25:13.474Z,9.03
2019-04-26T16:27:43.204Z,9.80
2019-04-26T16:30:32.954Z,8.50
2019-04-26T16:33:13.421Z,9.20
2019-04-26T16:35:43.376Z,9.10
2019-04-26T16:38:33.100Z,9.83
2019-04-26T16:41:03.405Z,10.20
2019-04-26T16:43:40.055Z,10.00
2019-04-26T16:46:05.470Z,9.27
2019-04-26T16:48:35.352Z,9.30
2019-04-26T16:51:08.274Z,9.60
2019-04-26T16:53:52.116Z,9.93
2019-04-26T16:56:08.112Z,11.10
2019-04-26T16:58:42.241Z,10.10
2019-04-26T17:01:10.112Z,9.17
2019-04-26T17:03:45.102Z,10.30
2019-04-26T17:06:14.378Z,10.40
2019-04-26T17:08:49.317Z,11.50
2019-04-26T17:11:14.504Z,10.80
2019-04-26T17:13:51.265Z,11.07
2019-04-26T17:16:15.392Z,11.30
2019-04-26T17:18:45.072Z,9.67
2019-04-26T17:21:17.737Z,9.23
2019-04-26T17:23:49.484Z,9.67
2019-04-26T17:26:23.589Z,9.93
2019-04-26T17:28:55.565Z,10.67
2019-04-26T17:31:24.560Z,11.53
2019-04-26T17:33:54.029Z,11.33
2019-04-26T17:36:23.585Z,12.80
2019-04-26T17:38:53.427Z,15.07
2019-04-26T17:41:22.986Z,18.40
2019-04-26T17:44:05.906Z,17.33
2019-04-26T17:46:23.883Z,18.80
2019-04-26T17:48:53.620Z,16.73
2019-04-26T17:51:23.429Z,18.70
2019-04-26T17:54:18.895Z,20.07
2019-04-26T17:56:25.959Z,20.67
2019-04-26T17:58:55.774Z,22.20
2019-04-26T18:01:42.079Z,23.00
2019-04-26T18:03:57.091Z,22.97
2019-04-26T18:06:30.000Z,22.43
2019-04-26T18:08:57.983Z,20.90
2019-04-26T18:11:27.827Z,22.60
2019-04-26T18:13:57.621Z,25.87
2019-04-26T18:16:29.449Z,22.63
2019-04-26T18:19:16.166Z,22.97
2019-04-26T18:21:56.505Z,22.80
2019-04-26T18:24:27.547Z,23.47
2019-04-26T18:26:59.107Z,21.73
2019-04-26T18:29:29.233Z,24.33
2019-04-26T18:31:59.183Z,22.77
2019-04-26T18:34:30.437Z,22.77
2019-04-26T18:37:04.110Z,22.17
2019-04-26T18:39:33.217Z,24.90
2019-04-26T18:42:05.878Z,23.90
2019-04-26T18:44:38.971Z,22.43
2019-04-26T18:47:10.254Z,24.47
2019-04-26T18:49:39.784Z,28.40
2019-04-26T18:52:09.834Z,25.60
2019-04-26T18:54:41.116Z,29.57
2019-04-26T18:57:15.674Z,26.50
2019-04-26T18:59:46.256Z,22.80
2019-04-26T19:02:18.627Z,24.77
2019-04-26T19:04:49.683Z,27.03
2019-04-26T19:07:31.493Z,28.10
2019-04-26T19:10:02.208Z,28.30
2019-04-26T19:12:26.803Z,26.93
2019-04-26T19:15:07.618Z,27.03
2019-04-26T19:17:37.988Z,30.53
2019-04-26T19:20:11.465Z,32.20
2019-04-26T19:22:46.531Z,31.27
2019-04-26T19:25:21.679Z,30.53
2019-04-26T19:27:49.895Z,32.53
2019-04-26T19:30:18.291Z,38.17
2019-04-26T19:32:48.054Z,32.40
2019-04-26T19:35:30.076Z,29.90
2019-04-26T19:37:59.744Z,30.20
2019-04-26T19:40:29.216Z,34.53
2019-04-26T19:43:03.271Z,33.33
2019-04-26T19:45:39.574Z,34.43
2019-04-26T19:48:20.698Z,31.10
2019-04-26T19:50:58.202Z,31.27
2019-04-26T19:53:32.560Z,31.60
2019-04-26T19:56:03.860Z,31.47
2019-04-26T19:58:35.296Z,33.00
2019-04-26T20:01:05.204Z,31.40
2019-04-26T20:03:34.744Z,25.93
2019-04-26T20:06:05.102Z,25.80
2019-04-26T20:08:41.767Z,27.13
2019-04-26T20:11:06.311Z,31.80
2019-04-26T20:13:35.775Z,28.37
2019-04-26T20:16:06.387Z,27.67
2019-04-26T20:18:38.864Z,25.40
2019-04-26T20:21:12.590Z,27.90
2019-04-26T20:23:43.711Z,28.23
2019-04-26T20:26:11.997Z,27.50
2019-04-26T20:28:42.355Z,24.83
2019-04-26T20:31:22.921Z,24.77
2019-04-26T20:33:52.820Z,27.60
2019-04-26T20:36:22.537Z,29.07
2019-04-26T20:38:52.369Z,24.03
2019-04-26T20:41:22.792Z,28.57
2019-04-26T20:44:05.133Z,24.67
2019-04-26T20:46:25.480Z,29.73
2019-04-26T20:48:55.037Z,29.13
2019-04-26T20:51:24.726Z,28.07
2019-04-26T20:53:54.431Z,27.03
2019-04-26T20:56:24.100Z,31.40
2019-04-26T20:58:53.631Z,35.77
2019-04-26T21:01:23.381Z,30.27
2019-04-26T21:03:53.044Z,34.27
2019-04-26T21:06:22.593Z,28.53
2019-04-26T21:08:54.172Z,27.57
2019-04-26T21:11:23.623Z,26.87
2019-04-26T21:13:53.318Z,31.63
2019-04-26T21:16:22.851Z,29.73
2019-04-26T21:18:52.551Z,29.13
2019-04-26T21:21:22.505Z,29.03
2019-04-26T21:23:52.404Z,27.37
2019-04-26T21:26:35.355Z,26.27
2019-04-26T21:29:15.421Z,26.77
2019-04-26T21:31:45.446Z,31.30
2019-04-26T21:34:24.341Z,32.70
2019-04-26T21:37:11.336Z,30.57
2019-04-26T21:39:57.064Z,30.90
2019-04-26T21:42:26.656Z,32.00
2019-04-26T21:44:56.216Z,34.83
2019-04-26T21:47:27.605Z,32.97
2019-04-26T21:49:59.080Z,34.97
2019-04-26T21:52:29.390Z,32.57
2019-04-26T21:54:59.281Z,30.33
2019-04-26T21:57:31.594Z,32.50
2019-04-26T22:00:00.082Z,32.67
2019-04-26T22:02:34.017Z,34.90
2019-04-26T22:05:01.041Z,34.20
2019-04-26T22:07:30.804Z,35.27
2019-04-26T22:10:14.256Z,33.93
2019-04-26T22:12:45.058Z,36.37
2019-04-26T22:15:35.818Z,39.13
2019-04-26T22:18:21.289Z,41.63
2019-04-26T22:20:54.472Z,38.97
2019-04-26T22:23:28.760Z,42.33
2019-04-26T22:26:00.209Z,42.90
2019-04-26T22:28:31.164Z,45.93
2019-04-26T22:31:04.719Z,39.53
2019-04-26T22:33:34.225Z,41.40
2019-04-26T22:36:04.144Z,44.67
2019-04-26T22:38:34.100Z,47.23
2019-04-26T22:41:03.758Z,39.70
2019-04-26T22:43:34.923Z,41.47
2019-04-26T22:46:11.903Z,43.47
2019-04-26T22:48:44.162Z,42.30
2019-04-26T22:51:14.071Z,37.80
2019-04-26T22:53:43.765Z,41.53
2019-04-26T22:56:13.676Z,41.00
2019-04-26T22:58:44.099Z,37.60
2019-04-26T23:01:13.920Z,41.87
2019-04-26T23:03:46.310Z,45.23
2019-04-26T23:06:15.396Z,45.40
2019-04-26T23:08:45.148Z,43.07
2019-04-26T23:11:14.813Z,39.87
2019-04-26T23:13:46.000Z,38.97
2019-04-26T23:16:17.180Z,43.80
2019-04-26T23:19:00.624Z,49.07
2019-04-26T23:21:44.303Z,41.83
2019-04-26T23:24:15.883Z,46.90
2019-04-26T23:26:45.331Z,42.07
2019-04-26T23:29:18.082Z,47.70
2019-04-26T23:31:46.176Z,47.90
2019-04-26T23:34:15.720Z,44.63
2019-04-26T23:36:49.097Z,47.03
2019-04-26T23:39:17.032Z,43.70
2019-04-26T23:41:46.504Z,54.00
2019-04-26T23:44:16.093Z,52.93
2019-04-26T23:46:45.624Z,51.90
2019-04-26T23:49:19.416Z,51.90
2019-04-26T23:51:46.612Z,53.67
2019-04-26T23:54:16.223Z,51.93
2019-04-26T23:56:45.761Z,49.30
2019-04-26T23:59:20.928Z,52.53
